createdAt,value
2019-03-30T00:00:30.359Z,5.6
2019-03-30T00:01:30.241Z,5.5
2019-03-30T00:02:30.589Z,5.5
2019-03-30T00:03:30.518Z,5.4
2019-03-30T00:12:28.719Z,5.9
2019-03-30T00:13:28.603Z,6
2019-03-30T00:14:28.618Z,5.9
2019-03-30T00:15:28.511Z,5.9
2019-03-30T00:16:28.389Z,5.9
2019-03-30T00:17:28.257Z,5.9
2019-03-30T00:18:28.133Z,5.8
2019-03-30T00:19:35.756Z,5.8
2019-03-30T00:20:35.645Z,5.8
2019-03-30T00:21:35.562Z,5.8
2019-03-30T00:22:35.934Z,5.7
2019-03-30T00:23:35.829Z,5.6
2019-03-30T00:24:35.732Z,5.6
2019-03-30T00:25:35.608Z,5.6
2019-03-30T00:26:35.501Z,5.5
2019-03-30T00:27:35.477Z,5.4
2019-03-30T00:28:35.349Z,5.5
2019-03-30T00:29:35.240Z,5.4
2019-03-30T00:30:35.103Z,5.4
2019-03-30T00:31:34.998Z,5.4
2019-03-30T00:32:35.323Z,5.4
2019-03-30T00:33:35.224Z,5.4
2019-03-30T00:34:35.127Z,5.5
2019-03-30T00:35:35.008Z,5.4
2019-03-30T00:36:34.898Z,5.5
2019-03-30T00:37:34.788Z,5.5
2019-03-30T00:38:34.665Z,5.5
2019-03-30T00:39:34.554Z,5.5
2019-03-30T00:40:34.441Z,5.4
2019-03-30T00:41:34.344Z,5.4
2019-03-30T00:42:34.641Z,5.3
2019-03-30T00:43:34.545Z,5.4
2019-03-30T00:44:34.502Z,5.3
2019-03-30T00:45:34.399Z,5.4
2019-03-30T00:46:34.299Z,5.4
2019-03-30T00:47:34.196Z,5.4
2019-03-30T00:48:34.086Z,5.4
2019-03-30T00:49:33.968Z,5.4
2019-03-30T00:50:49.800Z,5.3
2019-03-30T00:51:49.693Z,5.3
2019-03-30T00:52:50.012Z,5.4
2019-03-30T00:53:49.906Z,5.3
2019-03-30T00:54:49.799Z,5.3
2019-03-30T00:55:49.703Z,5.3
2019-03-30T00:56:49.589Z,5.3
2019-03-30T00:57:49.484Z,5.2
2019-03-30T00:58:49.374Z,5.2
2019-03-30T00:59:49.276Z,5.2
2019-03-30T01:00:49.234Z,5.2
2019-03-30T01:01:49.513Z,5.2
2019-03-30T01:02:49.828Z,5.2
2019-03-30T01:03:49.747Z,5.2
2019-03-30T01:05:49.370Z,5.2
2019-03-30T01:12:48.097Z,5.6
2019-03-30T01:13:47.990Z,5.6
2019-03-30T01:14:47.888Z,5.6
2019-03-30T01:15:47.838Z,5.5
2019-03-30T01:16:47.842Z,5.5
2019-03-30T01:17:47.766Z,5.5
2019-03-30T01:18:47.748Z,5.5
2019-03-30T01:19:47.762Z,5.5
2019-03-30T01:21:01.816Z,5.4
2019-03-30T01:22:01.703Z,5.3
2019-03-30T01:23:02.034Z,5.2
2019-03-30T01:24:01.938Z,5.2
2019-03-30T01:25:01.829Z,5.2
2019-03-30T01:27:01.486Z,5.5
2019-03-30T01:33:00.434Z,5.7
2019-03-30T01:34:00.334Z,5.7
2019-03-30T01:35:00.354Z,5.7
2019-03-30T01:36:00.526Z,5.7
2019-03-30T01:37:00.422Z,5.7
2019-03-30T01:38:00.308Z,5.6
2019-03-30T01:39:00.174Z,5.6
2019-03-30T01:40:00.094Z,5.6
2019-03-30T01:41:00.240Z,5.5
2019-03-30T01:42:00.144Z,5.4
2019-03-30T01:43:00.433Z,5.5
2019-03-30T01:44:00.366Z,5.5
2019-03-30T01:45:00.274Z,5.5
2019-03-30T01:46:00.160Z,5.5
2019-03-30T01:47:00.034Z,5.5
2019-03-30T01:47:59.938Z,5.4
2019-03-30T01:48:59.834Z,5.4
2019-03-30T01:49:59.760Z,5.4
2019-03-30T01:50:59.648Z,5.3
2019-03-30T01:51:59.538Z,5.3
2019-03-30T01:52:59.876Z,5.3
2019-03-30T01:53:59.756Z,5.3
2019-03-30T01:54:59.689Z,5.3
2019-03-30T01:55:59.592Z,5.3
2019-03-30T01:56:59.466Z,5.3
2019-03-30T01:57:59.369Z,5.3
2019-03-30T01:58:59.256Z,5.3
2019-03-30T01:59:59.132Z,5.3
2019-03-30T02:00:59.032Z,5.3
2019-03-30T02:01:58.908Z,5.3
2019-03-30T02:02:59.240Z,5.2
2019-03-30T02:03:59.130Z,5.2
2019-03-30T02:04:59.012Z,5.2
2019-03-30T02:05:58.892Z,5.1
2019-03-30T02:06:58.791Z,5.1
2019-03-30T02:07:58.684Z,5.1
2019-03-30T02:08:58.596Z,5.1
2019-03-30T02:09:58.476Z,5.1
2019-03-30T02:10:58.367Z,5.1
2019-03-30T02:11:58.246Z,5.1
2019-03-30T02:12:58.562Z,5.1
2019-03-30T02:13:58.465Z,5
2019-03-30T02:14:58.348Z,5
2019-03-30T02:15:58.256Z,5
2019-03-30T02:16:58.130Z,5
2019-03-30T02:17:58.028Z,5
2019-03-30T02:18:57.997Z,5
2019-03-30T02:19:57.892Z,5
2019-03-30T02:20:57.762Z,4.9
2019-03-30T02:21:57.649Z,4.9
2019-03-30T02:22:58.092Z,4.9
2019-03-30T02:23:58.001Z,4.9
2019-03-30T02:24:57.880Z,4.9
2019-03-30T02:25:57.920Z,4.9
2019-03-30T02:26:57.811Z,4.9
2019-03-30T02:27:57.686Z,5
2019-03-30T02:28:57.590Z,5
2019-03-30T02:29:57.474Z,5
2019-03-30T02:30:57.378Z,5
2019-03-30T02:31:57.303Z,5
2019-03-30T02:32:57.685Z,5
2019-03-30T02:33:57.627Z,5
2019-03-30T02:34:57.566Z,5
2019-03-30T02:51:54.320Z,5.9
2019-03-30T02:52:54.648Z,5.8
2019-03-30T02:53:54.621Z,5.8
2019-03-30T02:54:54.533Z,5.7
2019-03-30T02:55:54.438Z,5.6
2019-03-30T02:56:54.349Z,5.6
2019-03-30T02:57:54.288Z,5.6
2019-03-30T02:58:54.178Z,5.5
2019-03-30T02:59:54.112Z,5.4
2019-03-30T03:00:54.020Z,5.4
2019-03-30T03:01:53.921Z,5.3
2019-03-30T03:02:54.552Z,5.3
2019-03-30T03:03:54.448Z,5.2
2019-03-30T03:04:54.343Z,5.1
2019-03-30T03:05:54.233Z,5.1
2019-03-30T03:06:54.267Z,5.1
2019-03-30T03:07:54.175Z,5.1
2019-03-30T03:08:54.077Z,5
2019-03-30T03:09:54.043Z,5
2019-03-30T03:10:53.954Z,5
2019-03-30T03:11:53.922Z,4.9
2019-03-30T03:12:54.283Z,4.9
2019-03-30T03:13:54.209Z,4.9
2019-03-30T03:14:54.128Z,4.9
2019-03-30T03:15:54.039Z,4.9
2019-03-30T03:16:53.975Z,4.9
2019-03-30T03:17:53.914Z,4.8
2019-03-30T03:18:53.800Z,4.8
2019-03-30T03:19:53.705Z,4.8
2019-03-30T03:21:09.243Z,4.8
2019-03-30T03:22:09.180Z,4.7
2019-03-30T03:23:09.606Z,4.7
2019-03-30T03:24:09.532Z,4.7
2019-03-30T03:25:09.442Z,4.7
2019-03-30T03:33:08.483Z,5.2
2019-03-30T03:34:08.480Z,5.2
2019-03-30T03:35:08.482Z,5.1
2019-03-30T03:36:08.419Z,5.1
2019-03-30T03:37:08.332Z,5.1
2019-03-30T03:38:08.264Z,5.1
2019-03-30T03:39:08.170Z,5
2019-03-30T03:40:08.091Z,5
2019-03-30T03:41:08.054Z,5
2019-03-30T03:42:08.048Z,4.9
2019-03-30T03:43:08.445Z,4.9
2019-03-30T03:44:08.354Z,4.8
2019-03-30T03:45:08.249Z,4.8
2019-03-30T04:01:25.094Z,5.5
2019-03-30T04:07:24.286Z,5.6
2019-03-30T04:10:23.766Z,5.5
2019-03-30T04:11:23.656Z,5.5
2019-03-30T04:12:23.576Z,5.5
2019-03-30T04:13:24.034Z,5.5
2019-03-30T04:14:23.937Z,5.5
2019-03-30T04:15:23.850Z,5.4
2019-03-30T04:16:23.770Z,5.4
2019-03-30T04:17:23.713Z,5.3
2019-03-30T04:18:23.622Z,5.3
2019-03-30T04:19:23.576Z,5.3
2019-03-30T04:20:23.515Z,5.2
2019-03-30T04:21:23.429Z,5.2
2019-03-30T04:22:23.371Z,5.2
2019-03-30T04:23:23.749Z,5.1
2019-03-30T04:24:23.678Z,5
2019-03-30T04:25:23.609Z,4.9
2019-03-30T04:26:23.568Z,4.9
2019-03-30T04:27:23.494Z,4.8
2019-03-30T04:28:23.391Z,4.8
2019-03-30T04:29:23.369Z,4.8
2019-03-30T04:30:23.265Z,4.8
2019-03-30T04:31:23.190Z,4.8
2019-03-30T04:32:23.101Z,4.8
2019-03-30T04:33:23.586Z,4.8
2019-03-30T04:34:23.468Z,4.8
2019-03-30T04:35:23.388Z,4.7
2019-03-30T04:43:21.907Z,5.2
2019-03-30T04:44:21.793Z,5.2
2019-03-30T04:45:21.716Z,5.2
2019-03-30T04:46:21.700Z,5.1
2019-03-30T04:47:21.578Z,5.1
2019-03-30T04:48:21.485Z,5.1
2019-03-30T04:49:21.389Z,5.1
2019-03-30T04:50:21.280Z,5.1
2019-03-30T04:51:21.200Z,5.1
2019-03-30T04:52:21.080Z,5
2019-03-30T04:53:21.378Z,4.9
2019-03-30T04:54:21.260Z,4.9
2019-03-30T04:55:21.156Z,4.9
2019-03-30T04:56:21.080Z,4.9
2019-03-30T04:57:20.970Z,4.9
2019-03-30T04:58:20.910Z,4.9
2019-03-30T04:59:20.807Z,4.9
2019-03-30T05:00:20.706Z,4.8
2019-03-30T05:01:20.579Z,4.8
2019-03-30T05:02:20.498Z,4.9
2019-03-30T05:03:20.784Z,4.8
2019-03-30T05:04:20.681Z,4.8
2019-03-30T05:05:20.571Z,4.8
2019-03-30T05:06:20.457Z,4.8
2019-03-30T05:07:20.368Z,4.7
2019-03-30T05:08:20.252Z,4.8
2019-03-30T05:09:20.136Z,4.7
2019-03-30T05:10:20.029Z,4.7
2019-03-30T05:11:19.921Z,4.6
2019-03-30T05:12:19.869Z,4.6
2019-03-30T05:13:21.510Z,4.6
2019-03-30T05:14:21.409Z,4.6
2019-03-30T05:15:21.402Z,4.6
2019-03-30T05:16:21.296Z,4.6
2019-03-30T05:17:21.212Z,4.6
2019-03-30T05:18:21.131Z,4.6
2019-03-30T05:19:21.030Z,4.5
2019-03-30T05:20:20.919Z,4.4
2019-03-30T05:21:20.811Z,4.4
2019-03-30T05:22:20.685Z,4.5
2019-03-30T05:23:21.467Z,4.4
2019-03-30T05:24:21.367Z,4.5
2019-03-30T05:26:21.006Z,4.7
2019-03-30T05:38:35.049Z,5.7
2019-03-30T05:41:34.475Z,5.8
2019-03-30T05:42:34.365Z,5.9
2019-03-30T05:43:34.702Z,5.9
2019-03-30T05:44:34.577Z,5.9
2019-03-30T05:45:34.472Z,5.9
2019-03-30T05:46:34.398Z,5.9
2019-03-30T05:47:34.273Z,5.8
2019-03-30T05:48:34.179Z,5.8
2019-03-30T05:49:34.067Z,5.8
2019-03-30T05:50:33.964Z,5.8
2019-03-30T05:51:33.852Z,5.7
2019-03-30T05:52:36.306Z,5.7
2019-03-30T05:53:36.760Z,5.7
2019-03-30T05:54:36.643Z,5.8
2019-03-30T05:55:36.583Z,5.8
2019-03-30T05:57:36.211Z,5.8
2019-03-30T06:02:35.035Z,6
2019-03-30T06:03:35.365Z,6
2019-03-30T06:06:34.725Z,6.3
2019-03-30T06:07:34.609Z,6.4
2019-03-30T06:10:33.967Z,6.5
2019-03-30T06:11:33.865Z,6.5
2019-03-30T06:12:33.741Z,6.6
2019-03-30T06:13:34.135Z,6.6
2019-03-30T06:14:34.125Z,6.6
2019-03-30T06:15:34.015Z,6.5
2019-03-30T06:16:33.914Z,6.6
2019-03-30T06:17:33.810Z,6.6
2019-03-30T06:18:33.709Z,6.5
2019-03-30T06:19:33.640Z,6.5
2019-03-30T06:20:33.602Z,6.6
2019-03-30T06:21:33.544Z,6.6
2019-03-30T06:22:41.381Z,6.6
2019-03-30T06:23:41.743Z,6.7
2019-03-30T06:24:41.629Z,6.9
2019-03-30T06:25:41.529Z,6.8
2019-03-30T06:26:41.416Z,6.9
2019-03-30T06:27:41.323Z,6.9
2019-03-30T06:28:41.233Z,7.1
2019-03-30T06:29:41.099Z,7.1
2019-03-30T06:30:40.987Z,7.3
2019-03-30T06:31:40.891Z,7.4
2019-03-30T06:32:40.775Z,7.6
2019-03-30T06:33:41.079Z,7.8
2019-03-30T06:34:40.976Z,7.9
2019-03-30T06:35:40.881Z,8
2019-03-30T06:36:40.793Z,8.2
2019-03-30T06:37:40.654Z,8.3
2019-03-30T06:38:40.619Z,8.4
2019-03-30T06:39:40.530Z,8.6
2019-03-30T06:40:40.429Z,8.7
2019-03-30T06:41:40.331Z,8.7
2019-03-30T06:42:40.251Z,8.8
2019-03-30T06:43:40.580Z,8.9
2019-03-30T06:44:40.502Z,9.1
2019-03-30T06:45:40.408Z,9.2
2019-03-30T06:46:40.426Z,9.2
2019-03-30T06:47:40.334Z,9.5
2019-03-30T06:48:40.243Z,9.7
2019-03-30T06:49:40.148Z,9.8
2019-03-30T06:50:40.095Z,10
2019-03-30T06:51:40.054Z,10.3
2019-03-30T06:52:58.962Z,10.3
2019-03-30T06:53:59.399Z,10.4
2019-03-30T06:54:59.290Z,10.4
2019-03-30T06:55:59.207Z,10.7
2019-03-30T06:56:59.157Z,10.9
2019-03-30T06:57:59.059Z,11
2019-03-30T06:58:58.964Z,11.2
2019-03-30T06:59:58.913Z,11.1
2019-03-30T07:00:58.806Z,11.2
2019-03-30T07:01:58.706Z,11.2
2019-03-30T07:02:58.595Z,11.2
2019-03-30T07:03:58.909Z,11.2
2019-03-30T07:04:58.793Z,11.2
2019-03-30T07:05:58.749Z,11.2
2019-03-30T07:06:58.637Z,11.2
2019-03-30T07:07:58.513Z,11.3
2019-03-30T07:08:58.423Z,11.5
2019-03-30T07:09:58.301Z,11.5
2019-03-30T07:10:59.262Z,11.6
2019-03-30T07:11:59.155Z,11.7
2019-03-30T07:12:59.054Z,11.8
2019-03-30T07:13:59.348Z,12.2
2019-03-30T07:14:59.247Z,12.4
2019-03-30T07:15:59.168Z,12.4
2019-03-30T07:17:02.378Z,12.3
2019-03-30T07:18:02.327Z,12.3
2019-03-30T07:19:02.232Z,12.2
2019-03-30T07:20:02.115Z,12.1
2019-03-30T07:21:02.033Z,12.2
2019-03-30T07:22:01.926Z,12.3
2019-03-30T07:23:13.248Z,12.4
2019-03-30T07:24:13.582Z,12.5
2019-03-30T07:25:13.460Z,12.7
2019-03-30T07:26:13.382Z,12.8
2019-03-30T07:27:13.289Z,12.8
2019-03-30T07:28:13.184Z,12.9
2019-03-30T07:29:13.095Z,12.9
2019-03-30T07:30:12.982Z,12.8
2019-03-30T07:31:12.865Z,12.8
2019-03-30T07:32:12.767Z,12.8
2019-03-30T07:33:12.667Z,12.8
2019-03-30T07:34:12.957Z,12.7
2019-03-30T07:35:12.884Z,12.9
2019-03-30T07:36:12.785Z,13.1
2019-03-30T07:37:12.681Z,13.3
2019-03-30T07:38:12.568Z,13.4
2019-03-30T07:39:12.465Z,13.4
2019-03-30T07:40:12.460Z,13.6
2019-03-30T07:41:12.341Z,13.6
2019-03-30T07:42:12.288Z,13.5
2019-03-30T07:43:12.178Z,13.6
2019-03-30T07:44:12.510Z,13.5
2019-03-30T07:45:12.458Z,13.4
2019-03-30T07:46:12.338Z,13.6
2019-03-30T07:47:12.245Z,13.5
2019-03-30T07:48:12.158Z,13.6
2019-03-30T07:49:12.052Z,13.7
2019-03-30T07:50:11.932Z,13.7
2019-03-30T07:51:11.822Z,13.7
2019-03-30T07:52:11.709Z,13.7
2019-03-30T07:53:27.495Z,13.9
2019-03-30T07:54:27.908Z,13.8
2019-03-30T07:55:27.800Z,13.8
2019-03-30T07:56:27.778Z,13.7
2019-03-30T07:57:27.697Z,14
2019-03-30T07:58:27.713Z,14
2019-03-30T07:59:27.614Z,14.2
2019-03-30T08:00:31.564Z,14.3
2019-03-30T08:01:31.464Z,14.4
2019-03-30T08:02:31.338Z,14.3
2019-03-30T08:03:31.235Z,14.1
2019-03-30T08:04:31.566Z,14.1
2019-03-30T08:05:31.492Z,14.2
2019-03-30T08:06:31.381Z,14.2
2019-03-30T08:07:31.270Z,14.3
2019-03-30T08:08:31.162Z,14.3
2019-03-30T08:09:31.074Z,14.4
2019-03-30T08:10:30.956Z,14.4
2019-03-30T08:11:33.695Z,14.4
2019-03-30T08:12:33.617Z,14.4
2019-03-30T08:13:33.560Z,14.4
2019-03-30T08:14:33.874Z,14.4
2019-03-30T08:15:33.790Z,14.4
2019-03-30T08:16:33.665Z,14.5
2019-03-30T08:17:33.560Z,14.5
2019-03-30T08:18:33.452Z,14.7
2019-03-30T08:19:33.369Z,14.7
2019-03-30T08:20:33.244Z,14.8
2019-03-30T08:21:33.154Z,14.9
2019-03-30T08:22:33.051Z,15.1
2019-03-30T08:23:41.353Z,15.1
2019-03-30T08:24:41.715Z,15.2
2019-03-30T08:25:41.606Z,15.3
2019-03-30T08:26:41.521Z,15.4
2019-03-30T08:27:41.436Z,15.5
2019-03-30T08:28:41.334Z,15.6
2019-03-30T08:29:41.244Z,15.6
2019-03-30T08:30:41.168Z,15.7
2019-03-30T08:31:41.067Z,15.7
2019-03-30T08:32:40.992Z,15.8
2019-03-30T08:33:40.879Z,15.8
2019-03-30T08:34:41.197Z,15.9
2019-03-30T08:35:41.102Z,16
2019-03-30T08:36:41.108Z,15.9
2019-03-30T08:37:41.023Z,16
2019-03-30T08:38:41.336Z,16
2019-03-30T08:39:41.228Z,16
2019-03-30T08:40:41.145Z,16.1
2019-03-30T08:41:41.107Z,16
2019-03-30T08:42:41.003Z,16
2019-03-30T08:43:40.939Z,16.1
2019-03-30T08:44:41.269Z,16.1
2019-03-30T08:45:41.182Z,16.1
2019-03-30T08:46:41.076Z,16
2019-03-30T08:47:40.989Z,16
2019-03-30T08:48:40.968Z,16.2
2019-03-30T08:49:40.963Z,16.3
2019-03-30T08:50:40.879Z,16
2019-03-30T08:51:40.760Z,16.3
2019-03-30T08:52:40.672Z,16.3
2019-03-30T08:53:55.504Z,16.3
2019-03-30T08:54:55.823Z,16.2
2019-03-30T08:55:55.745Z,16.4
2019-03-30T08:56:55.675Z,16.5
2019-03-30T08:57:55.565Z,16.6
2019-03-30T08:58:55.511Z,16.7
2019-03-30T08:59:55.426Z,16.6
2019-03-30T09:00:55.321Z,16.4
2019-03-30T09:01:55.241Z,16.3
2019-03-30T09:02:55.127Z,16.3
2019-03-30T09:03:55.006Z,16.4
2019-03-30T09:04:55.337Z,16.4
2019-03-30T09:05:55.228Z,16.2
2019-03-30T09:06:55.131Z,16.3
2019-03-30T09:07:55.041Z,16.1
2019-03-30T09:08:54.933Z,16.2
2019-03-30T09:09:54.853Z,16.3
2019-03-30T09:10:54.760Z,16.1
2019-03-30T09:11:54.644Z,16.2
2019-03-30T09:12:54.565Z,16.1
2019-03-30T09:13:54.459Z,16.2
2019-03-30T09:14:54.779Z,16.3
2019-03-30T09:15:54.667Z,16.4
2019-03-30T09:16:54.545Z,16.5
2019-03-30T09:17:54.457Z,16.5
2019-03-30T09:18:54.359Z,16.2
2019-03-30T09:19:54.239Z,16.2
2019-03-30T09:20:54.113Z,16.2
2019-03-30T09:21:53.995Z,16.4
2019-03-30T09:22:53.903Z,16.5
2019-03-30T09:24:08.386Z,16.5
2019-03-30T09:25:10.884Z,16.6
2019-03-30T09:26:10.851Z,16.5
2019-03-30T09:27:10.730Z,16.6
2019-03-30T09:28:10.615Z,16.6
2019-03-30T09:29:10.511Z,16.5
2019-03-30T09:30:10.448Z,16.3
2019-03-30T09:31:10.349Z,16.4
2019-03-30T09:32:15.580Z,16.2
2019-03-30T09:33:15.503Z,16.2
2019-03-30T09:34:15.417Z,16.2
2019-03-30T09:35:15.727Z,16.1
2019-03-30T09:36:15.629Z,16.2
2019-03-30T09:37:15.543Z,16.3
2019-03-30T09:38:15.710Z,16.4
2019-03-30T09:39:15.645Z,16.5
2019-03-30T09:40:15.533Z,16.7
2019-03-30T09:41:15.437Z,16.9
2019-03-30T09:42:16.076Z,16.9
2019-03-30T09:43:15.965Z,17.1
2019-03-30T09:44:15.881Z,17.2
2019-03-30T09:45:16.207Z,17.4
2019-03-30T09:46:16.094Z,17.4
2019-03-30T09:47:15.982Z,17.4
2019-03-30T09:48:15.876Z,17.3
2019-03-30T09:49:15.872Z,17.3
2019-03-30T09:50:15.762Z,17.2
2019-03-30T09:51:15.649Z,17.3
2019-03-30T09:52:15.543Z,17.4
2019-03-30T09:53:15.454Z,17.5
2019-03-30T09:54:24.741Z,17.5
2019-03-30T09:55:28.091Z,17.5
2019-03-30T09:56:28.114Z,17.4
2019-03-30T09:57:28.023Z,17.4
2019-03-30T09:58:27.904Z,17.3
2019-03-30T09:59:27.827Z,17.3
2019-03-30T10:00:27.711Z,17.3
2019-03-30T10:01:27.603Z,17.3
2019-03-30T10:02:27.503Z,17.3
2019-03-30T10:03:27.383Z,17.1
2019-03-30T10:04:27.291Z,16.9
2019-03-30T10:05:27.620Z,16.8
2019-03-30T10:06:35.254Z,16.7
2019-03-30T10:07:35.931Z,16.7
2019-03-30T10:08:35.877Z,16.7
2019-03-30T10:09:35.759Z,16.7
2019-03-30T10:10:38.697Z,16.5
2019-03-30T10:11:38.598Z,16.4
2019-03-30T10:12:38.509Z,16.2
2019-03-30T10:13:38.394Z,16.2
2019-03-30T10:14:38.287Z,16.2
2019-03-30T10:15:38.695Z,16
2019-03-30T10:16:38.599Z,15.8
2019-03-30T10:17:38.487Z,15.7
2019-03-30T10:18:38.390Z,15.8
2019-03-30T10:19:38.314Z,15.8
2019-03-30T10:20:38.221Z,15.3
2019-03-30T10:21:38.335Z,15.2
2019-03-30T10:22:38.213Z,14.9
2019-03-30T10:23:42.217Z,15
2019-03-30T10:24:42.331Z,14.7
2019-03-30T10:25:42.642Z,14.6
2019-03-30T10:26:42.551Z,14.6
2019-03-30T10:27:42.527Z,14.8
2019-03-30T10:28:42.418Z,15
2019-03-30T10:29:42.406Z,15.2
2019-03-30T10:30:42.319Z,15.3
2019-03-30T10:31:42.232Z,15.1
2019-03-30T10:32:42.114Z,15
2019-03-30T10:33:42.020Z,15
2019-03-30T10:34:41.933Z,14.8
2019-03-30T10:35:42.247Z,14.8
2019-03-30T10:36:42.148Z,14.8
2019-03-30T10:37:42.054Z,14.7
2019-03-30T10:38:41.947Z,14.9
2019-03-30T10:39:41.833Z,15.1
2019-03-30T10:40:41.722Z,15.2
2019-03-30T10:41:41.640Z,15.4
2019-03-30T10:42:41.542Z,15.6
2019-03-30T10:43:41.436Z,15.8
2019-03-30T10:44:41.314Z,16
2019-03-30T10:45:41.708Z,16
2019-03-30T10:46:41.626Z,16.2
2019-03-30T10:47:41.580Z,16.2
2019-03-30T10:48:41.464Z,16
2019-03-30T10:49:41.360Z,16.2
2019-03-30T10:50:41.264Z,16.3
2019-03-30T10:51:41.180Z,16.4
2019-03-30T10:52:41.085Z,16.4
2019-03-30T10:53:40.972Z,16.4
2019-03-30T10:54:53.737Z,16.3
2019-03-30T10:55:54.087Z,16.2
2019-03-30T10:56:53.992Z,16
2019-03-30T10:57:53.887Z,15.9
2019-03-30T10:58:53.812Z,16.1
2019-03-30T10:59:53.705Z,16
2019-03-30T11:00:53.598Z,16.1
2019-03-30T11:01:53.518Z,16.2
2019-03-30T11:02:53.420Z,16.1
2019-03-30T11:03:53.372Z,16.1
2019-03-30T11:04:53.270Z,16.1
2019-03-30T11:05:53.591Z,16.1
2019-03-30T11:06:53.465Z,16.2
2019-03-30T11:07:53.443Z,16.2
2019-03-30T11:08:53.340Z,16.1
2019-03-30T11:09:53.270Z,16
2019-03-30T11:10:53.258Z,16.1
2019-03-30T11:11:53.158Z,16.2
2019-03-30T11:12:53.050Z,16.2
2019-03-30T11:13:52.927Z,16
2019-03-30T11:14:52.911Z,15.9
2019-03-30T11:15:53.244Z,15.9
2019-03-30T11:16:53.120Z,15.8
2019-03-30T11:17:53.012Z,15.9
2019-03-30T11:18:52.922Z,15.9
2019-03-30T11:19:52.858Z,16
2019-03-30T11:20:52.848Z,16
2019-03-30T11:21:52.749Z,16.1
2019-03-30T11:22:52.672Z,16.1
2019-03-30T11:23:52.564Z,16
2019-03-30T11:25:09.342Z,16.1
2019-03-30T11:26:09.669Z,16.1
2019-03-30T11:27:09.564Z,16.1
2019-03-30T11:28:09.564Z,16.1
2019-03-30T11:29:09.459Z,16.2
2019-03-30T11:30:09.350Z,16.2
2019-03-30T11:31:09.314Z,16.1
2019-03-30T11:32:09.204Z,16.2
2019-03-30T11:33:09.141Z,16.2
2019-03-30T11:34:09.052Z,16.2
2019-03-30T11:35:08.978Z,16.3
2019-03-30T11:36:09.287Z,16.3
2019-03-30T11:37:09.163Z,16.4
2019-03-30T11:38:09.042Z,16.4
2019-03-30T11:39:08.950Z,16.5
2019-03-30T11:40:08.830Z,16.5
2019-03-30T11:41:08.864Z,16.5
2019-03-30T11:42:08.734Z,16.5
2019-03-30T11:43:08.605Z,16.5
2019-03-30T11:44:08.512Z,16.5
2019-03-30T11:45:08.387Z,16.5
2019-03-30T11:46:08.743Z,16.5
2019-03-30T11:47:08.634Z,16.5
2019-03-30T11:48:08.532Z,16.5
2019-03-30T11:49:08.454Z,16.5
2019-03-30T11:50:08.338Z,16.6
2019-03-30T11:51:08.244Z,16.6
2019-03-30T11:52:08.123Z,16.6
2019-03-30T11:53:07.996Z,16.5
2019-03-30T11:54:08.322Z,16.6
2019-03-30T11:55:22.953Z,16.6
2019-03-30T11:56:23.296Z,16.8
2019-03-30T11:57:23.330Z,16.7
2019-03-30T11:58:23.232Z,16.7
2019-03-30T11:59:23.139Z,16.8
2019-03-30T12:00:23.129Z,16.8
2019-03-30T12:01:23.012Z,16.8
2019-03-30T12:02:28.996Z,16.8
2019-03-30T12:03:28.889Z,16.8
2019-03-30T12:04:28.814Z,16.8
2019-03-30T12:05:28.712Z,16.7
2019-03-30T12:06:29.012Z,16.7
2019-03-30T12:07:28.899Z,16.8
2019-03-30T12:08:28.780Z,16.7
2019-03-30T12:09:28.678Z,16.6
2019-03-30T12:10:28.616Z,16.6
2019-03-30T12:11:28.519Z,16.6
2019-03-30T12:12:28.388Z,16.6
2019-03-30T12:13:28.270Z,16.6
2019-03-30T12:14:28.154Z,16.7
2019-03-30T12:15:28.040Z,16.6
2019-03-30T12:16:28.346Z,16.5
2019-03-30T12:17:28.252Z,16.7
2019-03-30T12:18:28.130Z,16.7
2019-03-30T12:19:28.034Z,16.7
2019-03-30T12:20:27.928Z,16.7
2019-03-30T12:21:27.839Z,16.6
2019-03-30T12:22:27.728Z,16.6
2019-03-30T12:23:27.610Z,16.6
2019-03-30T12:24:27.498Z,16.6
2019-03-30T12:25:36.693Z,16.6
2019-03-30T12:26:37.076Z,16.7
2019-03-30T12:27:36.967Z,16.6
2019-03-30T12:28:36.864Z,16.6
2019-03-30T12:29:36.757Z,16.5
2019-03-30T12:30:36.654Z,16.4
2019-03-30T12:31:36.633Z,16.4
2019-03-30T12:32:36.526Z,16.3
2019-03-30T12:33:36.525Z,16.3
2019-03-30T12:34:36.402Z,16.3
2019-03-30T12:35:36.303Z,16.2
2019-03-30T12:36:36.638Z,16.1
2019-03-30T12:37:36.530Z,16.2
2019-03-30T12:38:36.414Z,16.2
2019-03-30T12:39:36.317Z,16.2
2019-03-30T12:40:36.192Z,16.3
2019-03-30T12:41:36.094Z,16.3
2019-03-30T12:42:36.002Z,16.3
2019-03-30T12:43:39.634Z,16.3
2019-03-30T12:44:39.548Z,16.3
2019-03-30T12:45:39.464Z,16.3
2019-03-30T12:46:39.796Z,16.3
2019-03-30T12:47:39.701Z,16.2
2019-03-30T12:48:39.622Z,16.2
2019-03-30T12:49:39.558Z,16.2
2019-03-30T12:50:39.487Z,16.1
2019-03-30T12:51:39.406Z,16
2019-03-30T12:52:39.317Z,15.9
2019-03-30T12:53:51.260Z,16
2019-03-30T12:54:51.155Z,16
2019-03-30T12:55:51.085Z,15.8
2019-03-30T12:56:51.453Z,15.8
2019-03-30T12:57:51.341Z,15.8
2019-03-30T12:58:51.245Z,15.7
2019-03-30T12:59:51.127Z,15.7
2019-03-30T13:00:51.023Z,15.8
2019-03-30T13:01:50.937Z,15.7
2019-03-30T13:02:50.872Z,15.6
2019-03-30T13:03:50.769Z,15.7
2019-03-30T13:04:50.745Z,15.7
2019-03-30T13:05:50.693Z,15.7
2019-03-30T13:06:50.993Z,15.8
2019-03-30T13:07:50.897Z,15.8
2019-03-30T13:08:50.801Z,15.8
2019-03-30T13:09:50.683Z,15.8
2019-03-30T13:10:50.583Z,15.8
2019-03-30T13:11:51.488Z,15.8
2019-03-30T13:12:51.389Z,15.8
2019-03-30T13:13:51.258Z,15.7
2019-03-30T13:14:51.149Z,15.8
2019-03-30T13:15:51.049Z,15.8
2019-03-30T13:16:51.461Z,15.7
2019-03-30T13:17:51.375Z,15.8
2019-03-30T13:18:51.267Z,15.9
2019-03-30T13:19:51.155Z,15.9
2019-03-30T13:20:51.053Z,15.8
2019-03-30T13:21:54.037Z,15.8
2019-03-30T13:22:53.957Z,15.8
2019-03-30T13:23:53.868Z,15.7
2019-03-30T13:24:53.762Z,15.7
2019-03-30T13:26:04.735Z,15.7
2019-03-30T13:27:05.053Z,15.7
2019-03-30T13:28:04.966Z,15.7
2019-03-30T13:29:04.856Z,15.8
2019-03-30T13:30:04.738Z,15.8
2019-03-30T13:31:04.631Z,15.8
2019-03-30T13:32:04.546Z,15.8
2019-03-30T13:33:04.439Z,15.8
2019-03-30T13:34:04.364Z,15.7
2019-03-30T13:35:04.268Z,15.8
2019-03-30T13:36:04.160Z,15.8
2019-03-30T13:37:04.917Z,15.8
2019-03-30T13:38:04.817Z,15.8
2019-03-30T13:39:04.739Z,15.8
2019-03-30T13:40:04.650Z,15.8
2019-03-30T13:41:04.530Z,15.8
2019-03-30T13:42:04.466Z,15.9
2019-03-30T13:43:04.358Z,15.9
2019-03-30T13:45:04.653Z,16
2019-03-30T13:46:04.549Z,16
2019-03-30T13:47:04.967Z,16.1
2019-03-30T13:48:04.886Z,16.1
2019-03-30T13:49:04.757Z,16.1
2019-03-30T13:50:04.765Z,16.2
2019-03-30T13:51:04.963Z,16.2
2019-03-30T13:52:04.875Z,16.2
2019-03-30T13:53:04.774Z,16.2
2019-03-30T13:54:04.681Z,16.2
2019-03-30T13:55:04.597Z,16.2
2019-03-30T13:56:18.089Z,16.2
2019-03-30T13:57:18.422Z,16.2
2019-03-30T13:58:18.308Z,16.3
2019-03-30T13:59:18.192Z,16.3
2019-03-30T14:00:18.093Z,16.4
2019-03-30T14:01:17.999Z,16.2
2019-03-30T14:02:17.896Z,16.3
2019-03-30T14:03:18.024Z,16.3
2019-03-30T14:04:17.928Z,16.3
2019-03-30T14:05:17.842Z,16.2
2019-03-30T14:06:17.742Z,16.2
2019-03-30T14:07:18.056Z,16.4
2019-03-30T14:08:17.942Z,16.3
2019-03-30T14:09:17.855Z,16.2
2019-03-30T14:10:17.764Z,16.2
2019-03-30T14:11:17.660Z,16.2
2019-03-30T14:12:17.549Z,16.2
2019-03-30T14:13:17.432Z,16.2
2019-03-30T14:14:17.342Z,16.2
2019-03-30T14:15:17.279Z,16.2
2019-03-30T14:16:17.158Z,16.1
2019-03-30T14:17:20.762Z,16.1
2019-03-30T14:18:20.752Z,16.1
2019-03-30T14:19:20.635Z,16.1
2019-03-30T14:20:20.542Z,16
2019-03-30T14:21:20.438Z,16
2019-03-30T14:22:20.331Z,16.1
2019-03-30T14:23:20.206Z,16.1
2019-03-30T14:24:20.103Z,16.1
2019-03-30T14:25:20.004Z,16
2019-03-30T14:26:32.275Z,15.9
2019-03-30T14:27:32.594Z,15.8
2019-03-30T14:28:32.604Z,15.8
2019-03-30T14:29:32.501Z,15.8
2019-03-30T14:30:32.398Z,15.8
2019-03-30T14:31:32.302Z,15.8
2019-03-30T14:32:32.198Z,15.8
2019-03-30T14:33:32.086Z,15.9
2019-03-30T14:34:31.966Z,15.8
2019-03-30T14:35:31.870Z,15.8
2019-03-30T14:36:31.812Z,15.8
2019-03-30T14:37:32.130Z,15.7
2019-03-30T14:38:32.020Z,15.7
2019-03-30T14:39:31.902Z,15.7
2019-03-30T14:40:31.782Z,15.7
2019-03-30T14:41:31.696Z,15.7
2019-03-30T14:42:31.659Z,15.8
2019-03-30T14:43:31.552Z,15.8
2019-03-30T14:44:31.446Z,15.8
2019-03-30T14:45:31.407Z,15.8
2019-03-30T14:46:31.322Z,15.8
2019-03-30T14:47:31.621Z,15.7
2019-03-30T14:48:31.502Z,15.7
2019-03-30T14:49:31.422Z,15.7
2019-03-30T14:50:31.310Z,15.8
2019-03-30T14:51:31.192Z,15.8
2019-03-30T14:52:31.091Z,15.9
2019-03-30T14:53:30.990Z,15.9
2019-03-30T14:54:30.886Z,15.9
2019-03-30T14:55:30.839Z,16
2019-03-30T14:56:46.284Z,16.1
2019-03-30T14:57:49.820Z,16.1
2019-03-30T14:58:49.771Z,16.2
2019-03-30T14:59:49.806Z,16.1
2019-03-30T15:00:49.689Z,16.2
2019-03-30T15:01:49.721Z,16.2
2019-03-30T15:02:49.778Z,16.2
2019-03-30T15:03:49.706Z,16
2019-03-30T15:04:49.606Z,16
2019-03-30T15:05:49.483Z,16
2019-03-30T15:06:49.396Z,16
2019-03-30T15:07:49.791Z,16
2019-03-30T15:08:49.693Z,15.9
2019-03-30T15:09:49.578Z,15.9
2019-03-30T15:10:49.498Z,15.9
2019-03-30T15:11:49.382Z,16
2019-03-30T15:12:49.296Z,16
2019-03-30T15:13:49.192Z,16
2019-03-30T15:14:49.072Z,15.9
2019-03-30T15:15:48.960Z,16